createdAt,value
2022-10-24T00:00:02.436Z,0
2022-10-24T00:15:02.926Z,0
2022-10-24T00:30:02.348Z,0
2022-10-24T00:45:02.952Z,0
2022-10-24T01:00:02.187Z,0
2022-10-24T01:15:02.640Z,0
2022-10-24T01:30:03.051Z,0
2022-10-24T01:45:02.500Z,0
2022-10-24T02:00:02.977Z,0
2022-10-24T02:15:02.392Z,0
2022-10-24T02:30:02.953Z,0
2022-10-24T02:45:02.271Z,0
2022-10-24T03:00:02.957Z,0
2022-10-24T03:15:02.169Z,0
2022-10-24T03:30:02.619Z,0
2022-10-24T03:45:03.068Z,0
2022-10-24T04:00:02.501Z,0
2022-10-24T04:15:04.972Z,0
2022-10-24T04:45:02.971Z,0
2022-10-24T05:00:02.243Z,0
2022-10-24T05:15:02.705Z,0
2022-10-24T05:30:03.136Z,0
2022-10-24T05:45:02.584Z,0
2022-10-24T06:00:03.005Z,0
2022-10-24T06:15:02.457Z,0
2022-10-24T06:30:03.027Z,2
2022-10-24T06:45:02.395Z,10
2022-10-24T07:00:02.730Z,14
2022-10-24T07:15:03.207Z,39
2022-10-24T07:30:05.586Z,45
2022-10-24T07:45:02.034Z,39
2022-10-24T08:00:02.498Z,77
2022-10-24T08:15:03.011Z,76
2022-10-24T08:30:02.349Z,158
2022-10-24T08:45:03.024Z,111
2022-10-24T09:00:02.234Z,171
2022-10-24T09:15:02.684Z,143
2022-10-24T09:30:03.122Z,127
2022-10-24T09:45:02.567Z,282
2022-10-24T10:00:03.041Z,111
2022-10-24T10:15:02.454Z,165
2022-10-24T10:30:03.073Z,119
2022-10-24T10:45:02.349Z,200
2022-10-24T11:00:02.780Z,148
2022-10-24T11:15:03.234Z,198
2022-10-24T11:30:02.657Z,335
2022-10-24T11:45:03.109Z,163
2022-10-24T12:00:02.506Z,178
2022-10-24T12:15:03.094Z,103
2022-10-24T12:30:02.393Z,48
2022-10-24T12:45:03.091Z,177
2022-10-24T13:00:02.295Z,49
2022-10-24T13:15:02.717Z,35
2022-10-24T13:30:03.201Z,53
2022-10-24T13:45:02.624Z,90
2022-10-24T14:00:03.115Z,88
2022-10-24T14:15:02.522Z,35
2022-10-24T14:30:03.208Z,2
2022-10-24T14:45:02.212Z,28
2022-10-24T15:00:02.797Z,23
2022-10-24T15:15:02.055Z,18
2022-10-24T15:30:02.579Z,41
2022-10-24T15:45:02.957Z,25
2022-10-24T16:00:02.568Z,7
2022-10-24T16:15:02.848Z,0
2022-10-24T16:30:02.294Z,0
2022-10-24T16:45:02.724Z,0
2022-10-24T17:00:03.169Z,0
2022-10-24T17:15:02.615Z,0
2022-10-24T17:30:03.054Z,0
2022-10-24T17:45:02.599Z,0
2022-10-24T18:00:02.924Z,0
2022-10-24T18:15:02.570Z,0
2022-10-24T18:30:02.794Z,0
2022-10-24T18:45:03.252Z,0
2022-10-24T19:00:02.692Z,0
2022-10-24T19:15:03.128Z,0
2022-10-24T19:30:02.600Z,0
2022-10-24T19:45:03.039Z,0
2022-10-24T20:00:02.629Z,0
2022-10-24T20:15:02.873Z,0
2022-10-24T20:30:02.308Z,0
2022-10-24T20:45:02.755Z,0
2022-10-24T21:00:03.186Z,0
2022-10-24T21:15:02.643Z,0
2022-10-24T21:30:03.071Z,0
2022-10-24T21:45:02.646Z,0
2022-10-24T22:00:02.955Z,0
2022-10-24T22:15:03.398Z,0
2022-10-24T22:30:02.827Z,0
2022-10-24T22:45:03.248Z,0
2022-10-24T23:00:02.695Z,0
2022-10-24T23:15:03.136Z,0
2022-10-24T23:30:02.648Z,0
2022-10-24T23:45:04.259Z,0
